sensor_id;sensor_type;location;lat;lon;timestamp;P1;durP1;ratioP1;P2;durP2;ratioP2
50968;SDS011;36982;51.474;7.228;2022-11-15T00:00:50;6.07;;;4.70;;
50968;SDS011;36982;51.474;7.228;2022-11-15T00:03:17;7.83;;;5.20;;
50968;SDS011;36982;51.474;7.228;2022-11-15T00:05:44;6.17;;;4.93;;
50968;SDS011;36982;51.474;7.228;2022-11-15T00:08:10;6.47;;;4.90;;
50968;SDS011;36982;51.474;7.228;2022-11-15T00:10:36;6.23;;;5.03;;
50968;SDS011;36982;51.474;7.228;2022-11-15T00:13:09;10.40;;;4.93;;
50968;SDS011;36982;51.474;7.228;2022-11-15T00:15:36;6.43;;;4.73;;
50968;SDS011;36982;51.474;7.228;2022-11-15T00:18:04;7.70;;;5.10;;
50968;SDS011;36982;51.474;7.228;2022-11-15T00:20:31;6.80;;;5.40;;
50968;SDS011;36982;51.474;7.228;2022-11-15T00:22:58;5.50;;;4.57;;
50968;SDS011;36982;51.474;7.228;2022-11-15T00:25:24;10.30;;;5.00;;
50968;SDS011;36982;51.474;7.228;2022-11-15T00:27:50;8.90;;;5.10;;
50968;SDS011;36982;51.474;7.228;2022-11-15T00:30:16;7.03;;;4.57;;
50968;SDS011;36982;51.474;7.228;2022-11-15T00:32:42;7.43;;;4.57;;
50968;SDS011;36982;51.474;7.228;2022-11-15T00:35:08;6.93;;;4.83;;
50968;SDS011;36982;51.474;7.228;2022-11-15T00:37:33;6.07;;;4.90;;
50968;SDS011;36982;51.474;7.228;2022-11-15T00:39:59;7.40;;;4.90;;
50968;SDS011;36982;51.474;7.228;2022-11-15T00:42:24;7.07;;;5.07;;
50968;SDS011;36982;51.474;7.228;2022-11-15T00:44:50;7.80;;;4.40;;
50968;SDS011;36982;51.474;7.228;2022-11-15T00:47:15;7.23;;;4.77;;
50968;SDS011;36982;51.474;7.228;2022-11-15T00:49:41;7.10;;;5.07;;
50968;SDS011;36982;51.474;7.228;2022-11-15T00:52:07;8.60;;;4.80;;
50968;SDS011;36982;51.474;7.228;2022-11-15T00:54:32;6.37;;;4.40;;
50968;SDS011;36982;51.474;7.228;2022-11-15T00:56:58;8.73;;;5.10;;
50968;SDS011;36982;51.474;7.228;2022-11-15T00:59:23;8.50;;;4.63;;
50968;SDS011;36982;51.474;7.228;2022-11-15T01:01:49;6.23;;;5.00;;
50968;SDS011;36982;51.474;7.228;2022-11-15T01:04:14;8.67;;;4.70;;
50968;SDS011;36982;51.474;7.228;2022-11-15T01:06:40;7.40;;;5.10;;
50968;SDS011;36982;51.474;7.228;2022-11-15T01:09:05;7.20;;;4.87;;
50968;SDS011;36982;51.474;7.228;2022-11-15T01:11:31;6.00;;;4.47;;
50968;SDS011;36982;51.474;7.228;2022-11-15T01:13:57;7.07;;;4.47;;
50968;SDS011;36982;51.474;7.228;2022-11-15T01:16:22;6.13;;;4.50;;
50968;SDS011;36982;51.474;7.228;2022-11-15T01:18:48;6.83;;;4.80;;
50968;SDS011;36982;51.474;7.228;2022-11-15T01:21:14;7.57;;;5.10;;
50968;SDS011;36982;51.474;7.228;2022-11-15T01:23:41;8.13;;;4.80;;
50968;SDS011;36982;51.474;7.228;2022-11-15T01:26:09;8.87;;;5.20;;
50968;SDS011;36982;51.474;7.228;2022-11-15T01:28:37;5.27;;;4.00;;
50968;SDS011;36982;51.474;7.228;2022-11-15T01:31:05;5.90;;;4.60;;
50968;SDS011;36982;51.474;7.228;2022-11-15T01:33:34;9.27;;;4.97;;
50968;SDS011;36982;51.474;7.228;2022-11-15T01:36:08;7.23;;;4.60;;
50968;SDS011;36982;51.474;7.228;2022-11-15T01:38:38;7.67;;;4.50;;
50968;SDS011;36982;51.474;7.228;2022-11-15T01:41:04;6.70;;;4.37;;
50968;SDS011;36982;51.474;7.228;2022-11-15T01:43:31;7.67;;;4.33;;
50968;SDS011;36982;51.474;7.228;2022-11-15T01:46:08;5.93;;;4.47;;
50968;SDS011;36982;51.474;7.228;2022-11-15T01:48:46;8.57;;;4.70;;
50968;SDS011;36982;51.474;7.228;2022-11-15T01:51:14;8.60;;;4.80;;
50968;SDS011;36982;51.474;7.228;2022-11-15T01:53:42;6.30;;;4.23;;
50968;SDS011;36982;51.474;7.228;2022-11-15T01:56:13;7.20;;;4.97;;
50968;SDS011;36982;51.474;7.228;2022-11-15T01:58:43;8.97;;;4.53;;
50968;SDS011;36982;51.474;7.228;2022-11-15T02:01:11;7.33;;;4.50;;
50968;SDS011;36982;51.474;7.228;2022-11-15T02:03:45;6.03;;;4.17;;
50968;SDS011;36982;51.474;7.228;2022-11-15T02:06:45;5.93;;;3.83;;
50968;SDS011;36982;51.474;7.228;2022-11-15T02:09:13;6.03;;;4.40;;
50968;SDS011;36982;51.474;7.228;2022-11-15T02:11:38;4.80;;;3.77;;
50968;SDS011;36982;51.474;7.228;2022-11-15T02:14:04;7.30;;;4.70;;
50968;SDS011;36982;51.474;7.228;2022-11-15T02:32:44;5.67;;;4.40;;
50968;SDS011;36982;51.474;7.228;2022-11-15T02:41:06;4.60;;;3.70;;
50968;SDS011;36982;51.474;7.228;2022-11-15T02:46:27;7.50;;;4.20;;
50968;SDS011;36982;51.474;7.228;2022-11-15T02:49:15;6.23;;;3.70;;
50968;SDS011;36982;51.474;7.228;2022-11-15T02:51:41;5.67;;;4.30;;
50968;SDS011;36982;51.474;7.228;2022-11-15T02:54:11;5.87;;;4.07;;
50968;SDS011;36982;51.474;7.228;2022-11-15T02:56:40;7.10;;;4.57;;
50968;SDS011;36982;51.474;7.228;2022-11-15T03:02:00;7.83;;;4.33;;
50968;SDS011;36982;51.474;7.228;2022-11-15T03:04:58;6.27;;;4.43;;
50968;SDS011;36982;51.474;7.228;2022-11-15T03:07:57;5.73;;;4.60;;
50968;SDS011;36982;51.474;7.228;2022-11-15T03:10:32;6.87;;;5.00;;
50968;SDS011;36982;51.474;7.228;2022-11-15T03:15:41;8.30;;;5.03;;
50968;SDS011;36982;51.474;7.228;2022-11-15T03:21:07;7.93;;;4.87;;
50968;SDS011;36982;51.474;7.228;2022-11-15T03:23:35;9.77;;;4.60;;
50968;SDS011;36982;51.474;7.228;2022-11-15T03:26:03;7.20;;;5.00;;
50968;SDS011;36982;51.474;7.228;2022-11-15T03:28:35;7.53;;;5.17;;
50968;SDS011;36982;51.474;7.228;2022-11-15T03:31:13;7.33;;;4.90;;
50968;SDS011;36982;51.474;7.228;2022-11-15T03:33:59;12.43;;;6.07;;
50968;SDS011;36982;51.474;7.228;2022-11-15T03:36:29;10.73;;;5.60;;
50968;SDS011;36982;51.474;7.228;2022-11-15T03:38:58;14.37;;;6.27;;
50968;SDS011;36982;51.474;7.228;2022-11-15T03:41:28;8.13;;;4.93;;
50968;SDS011;36982;51.474;7.228;2022-11-15T03:44:23;7.67;;;4.73;;
50968;SDS011;36982;51.474;7.228;2022-11-15T03:49:33;6.00;;;4.70;;
50968;SDS011;36982;51.474;7.228;2022-11-15T03:52:01;6.50;;;4.83;;
50968;SDS011;36982;51.474;7.228;2022-11-15T03:54:28;5.47;;;4.50;;
50968;SDS011;36982;51.474;7.228;2022-11-15T03:56:54;6.10;;;4.47;;
50968;SDS011;36982;51.474;7.228;2022-11-15T03:59:20;5.80;;;4.17;;
50968;SDS011;36982;51.474;7.228;2022-11-15T04:01:45;4.97;;;4.13;;
50968;SDS011;36982;51.474;7.228;2022-11-15T04:04:11;6.23;;;4.87;;
50968;SDS011;36982;51.474;7.228;2022-11-15T04:06:36;6.70;;;4.47;;
50968;SDS011;36982;51.474;7.228;2022-11-15T04:09:02;6.50;;;4.23;;
50968;SDS011;36982;51.474;7.228;2022-11-15T04:11:28;6.73;;;4.10;;
50968;SDS011;36982;51.474;7.228;2022-11-15T04:13:53;5.90;;;4.10;;
50968;SDS011;36982;51.474;7.228;2022-11-15T04:16:19;6.57;;;4.80;;
50968;SDS011;36982;51.474;7.228;2022-11-15T04:18:44;7.27;;;4.27;;
50968;SDS011;36982;51.474;7.228;2022-11-15T04:21:30;5.00;;;4.07;;
50968;SDS011;36982;51.474;7.228;2022-11-15T04:24:14;6.43;;;4.53;;
50968;SDS011;36982;51.474;7.228;2022-11-15T04:26:40;7.60;;;4.27;;
50968;SDS011;36982;51.474;7.228;2022-11-15T04:29:05;5.33;;;4.37;;
50968;SDS011;36982;51.474;7.228;2022-11-15T04:31:49;5.80;;;4.47;;
50968;SDS011;36982;51.474;7.228;2022-11-15T04:34:15;7.37;;;4.97;;
50968;SDS011;36982;51.474;7.228;2022-11-15T04:36:40;5.33;;;4.37;;
50968;SDS011;36982;51.474;7.228;2022-11-15T04:39:25;7.97;;;4.50;;
50968;SDS011;36982;51.474;7.228;2022-11-15T04:41:50;6.20;;;4.30;;
50968;SDS011;36982;51.474;7.228;2022-11-15T04:44:16;5.93;;;4.40;;
50968;SDS011;36982;51.474;7.228;2022-11-15T04:46:41;5.23;;;4.17;;
50968;SDS011;36982;51.474;7.228;2022-11-15T04:49:07;6.00;;;4.57;;
50968;SDS011;36982;51.474;7.228;2022-11-15T04:51:32;5.87;;;4.47;;
50968;SDS011;36982;51.474;7.228;2022-11-15T04:53:58;5.67;;;4.23;;
50968;SDS011;36982;51.474;7.228;2022-11-15T04:56:24;6.97;;;4.40;;
50968;SDS011;36982;51.474;7.228;2022-11-15T04:58:49;5.87;;;4.60;;
50968;SDS011;36982;51.474;7.228;2022-11-15T05:01:15;8.93;;;4.43;;
50968;SDS011;36982;51.474;7.228;2022-11-15T05:03:44;6.40;;;4.47;;
50968;SDS011;36982;51.474;7.228;2022-11-15T05:06:28;5.53;;;4.20;;
50968;SDS011;36982;51.474;7.228;2022-11-15T05:08:54;5.53;;;4.60;;
50968;SDS011;36982;51.474;7.228;2022-11-15T05:11:20;5.40;;;4.13;;
50968;SDS011;36982;51.474;7.228;2022-11-15T05:13:46;5.80;;;4.97;;
50968;SDS011;36982;51.474;7.228;2022-11-15T05:16:12;6.20;;;4.27;;
50968;SDS011;36982;51.474;7.228;2022-11-15T05:18:37;6.33;;;4.97;;
50968;SDS011;36982;51.474;7.228;2022-11-15T05:21:10;5.57;;;4.70;;
50968;SDS011;36982;51.474;7.228;2022-11-15T05:23:37;5.40;;;4.70;;
50968;SDS011;36982;51.474;7.228;2022-11-15T05:26:03;4.87;;;4.37;;
50968;SDS011;36982;51.474;7.228;2022-11-15T05:28:31;5.93;;;4.63;;
50968;SDS011;36982;51.474;7.228;2022-11-15T05:31:01;6.07;;;4.80;;
50968;SDS011;36982;51.474;7.228;2022-11-15T05:33:27;5.50;;;4.40;;
50968;SDS011;36982;51.474;7.228;2022-11-15T05:36:07;5.70;;;4.87;;
50968;SDS011;36982;51.474;7.228;2022-11-15T05:38:39;6.27;;;4.00;;
50968;SDS011;36982;51.474;7.228;2022-11-15T05:41:04;5.33;;;4.33;;
50968;SDS011;36982;51.474;7.228;2022-11-15T05:43:31;7.03;;;4.70;;
50968;SDS011;36982;51.474;7.228;2022-11-15T05:46:00;5.00;;;4.50;;
50968;SDS011;36982;51.474;7.228;2022-11-15T05:48:28;5.23;;;4.73;;
50968;SDS011;36982;51.474;7.228;2022-11-15T05:50:54;4.93;;;4.43;;
50968;SDS011;36982;51.474;7.228;2022-11-15T05:53:21;5.10;;;4.60;;
50968;SDS011;36982;51.474;7.228;2022-11-15T05:55:48;6.33;;;4.50;;
50968;SDS011;36982;51.474;7.228;2022-11-15T05:58:14;4.97;;;4.30;;
50968;SDS011;36982;51.474;7.228;2022-11-15T06:00:40;5.43;;;4.93;;
50968;SDS011;36982;51.474;7.228;2022-11-15T06:03:08;6.30;;;5.03;;
50968;SDS011;36982;51.474;7.228;2022-11-15T06:05:33;5.80;;;4.87;;
50968;SDS011;36982;51.474;7.228;2022-11-15T06:07:59;7.60;;;4.63;;
50968;SDS011;36982;51.474;7.228;2022-11-15T06:10:25;5.60;;;4.20;;
50968;SDS011;36982;51.474;7.228;2022-11-15T06:13:01;7.37;;;4.70;;
50968;SDS011;36982;51.474;7.228;2022-11-15T06:15:28;6.17;;;4.20;;
50968;SDS011;36982;51.474;7.228;2022-11-15T06:17:56;5.73;;;4.47;;
50968;SDS011;36982;51.474;7.228;2022-11-15T06:20:23;5.27;;;4.77;;
50968;SDS011;36982;51.474;7.228;2022-11-15T06:22:59;5.13;;;4.47;;
50968;SDS011;36982;51.474;7.228;2022-11-15T06:25:26;6.67;;;4.43;;
50968;SDS011;36982;51.474;7.228;2022-11-15T06:27:53;5.33;;;4.53;;
50968;SDS011;36982;51.474;7.228;2022-11-15T06:30:20;5.47;;;4.60;;
50968;SDS011;36982;51.474;7.228;2022-11-15T06:32:46;4.40;;;4.00;;
50968;SDS011;36982;51.474;7.228;2022-11-15T06:35:13;4.93;;;4.37;;
50968;SDS011;36982;51.474;7.228;2022-11-15T06:37:39;4.30;;;3.90;;
50968;SDS011;36982;51.474;7.228;2022-11-15T06:40:05;4.30;;;3.53;;
50968;SDS011;36982;51.474;7.228;2022-11-15T06:42:32;4.80;;;3.80;;
50968;SDS011;36982;51.474;7.228;2022-11-15T06:44:57;4.13;;;3.47;;
50968;SDS011;36982;51.474;7.228;2022-11-15T06:47:23;4.67;;;3.37;;
50968;SDS011;36982;51.474;7.228;2022-11-15T06:49:49;3.73;;;3.30;;
50968;SDS011;36982;51.474;7.228;2022-11-15T06:52:14;2.97;;;2.60;;
50968;SDS011;36982;51.474;7.228;2022-11-15T06:54:40;4.63;;;3.13;;
50968;SDS011;36982;51.474;7.228;2022-11-15T06:57:05;3.03;;;2.73;;
50968;SDS011;36982;51.474;7.228;2022-11-15T06:59:31;3.93;;;2.90;;
50968;SDS011;36982;51.474;7.228;2022-11-15T07:01:56;6.87;;;3.00;;
50968;SDS011;36982;51.474;7.228;2022-11-15T07:04:22;4.17;;;2.67;;
50968;SDS011;36982;51.474;7.228;2022-11-15T07:06:48;3.37;;;2.73;;
50968;SDS011;36982;51.474;7.228;2022-11-15T07:09:13;6.07;;;2.97;;
50968;SDS011;36982;51.474;7.228;2022-11-15T07:11:39;3.00;;;2.40;;
50968;SDS011;36982;51.474;7.228;2022-11-15T07:14:05;4.80;;;2.80;;
50968;SDS011;36982;51.474;7.228;2022-11-15T07:16:31;3.27;;;2.50;;
50968;SDS011;36982;51.474;7.228;2022-11-15T07:18:56;2.33;;;2.10;;
50968;SDS011;36982;51.474;7.228;2022-11-15T07:21:22;4.40;;;2.80;;
50968;SDS011;36982;51.474;7.228;2022-11-15T07:23:48;3.17;;;2.57;;
50968;SDS011;36982;51.474;7.228;2022-11-15T07:26:13;2.60;;;2.40;;
50968;SDS011;36982;51.474;7.228;2022-11-15T07:28:39;3.97;;;2.70;;
50968;SDS011;36982;51.474;7.228;2022-11-15T07:31:05;3.30;;;2.43;;
50968;SDS011;36982;51.474;7.228;2022-11-15T07:33:32;3.37;;;2.30;;
50968;SDS011;36982;51.474;7.228;2022-11-15T07:35:59;3.40;;;1.97;;
50968;SDS011;36982;51.474;7.228;2022-11-15T07:38:26;4.47;;;2.00;;
50968;SDS011;36982;51.474;7.228;2022-11-15T07:40:59;2.33;;;2.13;;
50968;SDS011;36982;51.474;7.228;2022-11-15T07:43:26;2.20;;;1.90;;
50968;SDS011;36982;51.474;7.228;2022-11-15T07:45:53;3.87;;;2.10;;
50968;SDS011;36982;51.474;7.228;2022-11-15T07:48:18;2.97;;;2.00;;
50968;SDS011;36982;51.474;7.228;2022-11-15T07:50:44;2.37;;;2.13;;
50968;SDS011;36982;51.474;7.228;2022-11-15T07:53:10;5.67;;;1.90;;
50968;SDS011;36982;51.474;7.228;2022-11-15T07:55:36;2.27;;;1.93;;
50968;SDS011;36982;51.474;7.228;2022-11-15T07:58:02;2.30;;;2.00;;
50968;SDS011;36982;51.474;7.228;2022-11-15T08:00:30;4.50;;;2.03;;
50968;SDS011;36982;51.474;7.228;2022-11-15T08:03:03;2.43;;;1.70;;
50968;SDS011;36982;51.474;7.228;2022-11-15T08:05:29;2.50;;;1.90;;
50968;SDS011;36982;51.474;7.228;2022-11-15T08:07:55;3.60;;;1.90;;
50968;SDS011;36982;51.474;7.228;2022-11-15T08:10:21;2.47;;;1.80;;
50968;SDS011;36982;51.474;7.228;2022-11-15T08:12:47;2.90;;;1.90;;
50968;SDS011;36982;51.474;7.228;2022-11-15T08:15:12;2.57;;;1.70;;
50968;SDS011;36982;51.474;7.228;2022-11-15T08:17:38;1.87;;;1.70;;
50968;SDS011;36982;51.474;7.228;2022-11-15T08:20:04;3.83;;;2.27;;
50968;SDS011;36982;51.474;7.228;2022-11-15T08:22:30;2.70;;;2.00;;
50968;SDS011;36982;51.474;7.228;2022-11-15T08:24:55;3.13;;;1.97;;
50968;SDS011;36982;51.474;7.228;2022-11-15T08:27:21;2.60;;;1.70;;
50968;SDS011;36982;51.474;7.228;2022-11-15T08:29:48;2.10;;;1.60;;
50968;SDS011;36982;51.474;7.228;2022-11-15T08:32:13;3.07;;;1.70;;
50968;SDS011;36982;51.474;7.228;2022-11-15T08:34:39;1.90;;;1.60;;
50968;SDS011;36982;51.474;7.228;2022-11-15T08:37:05;2.03;;;1.53;;
50968;SDS011;36982;51.474;7.228;2022-11-15T08:39:31;3.27;;;1.70;;
50968;SDS011;36982;51.474;7.228;2022-11-15T08:41:57;2.73;;;1.53;;
50968;SDS011;36982;51.474;7.228;2022-11-15T08:44:23;3.17;;;1.90;;
50968;SDS011;36982;51.474;7.228;2022-11-15T08:46:49;1.63;;;1.27;;
50968;SDS011;36982;51.474;7.228;2022-11-15T08:49:15;2.67;;;1.83;;
50968;SDS011;36982;51.474;7.228;2022-11-15T08:51:41;3.27;;;1.67;;
50968;SDS011;36982;51.474;7.228;2022-11-15T08:54:06;2.87;;;2.10;;
50968;SDS011;36982;51.474;7.228;2022-11-15T08:56:32;2.27;;;1.73;;
50968;SDS011;36982;51.474;7.228;2022-11-15T08:58:58;2.20;;;1.47;;
50968;SDS011;36982;51.474;7.228;2022-11-15T09:01:23;1.50;;;1.20;;
50968;SDS011;36982;51.474;7.228;2022-11-15T09:03:49;3.00;;;1.33;;
50968;SDS011;36982;51.474;7.228;2022-11-15T09:06:15;1.40;;;1.30;;
50968;SDS011;36982;51.474;7.228;2022-11-15T09:08:40;2.07;;;1.30;;
50968;SDS011;36982;51.474;7.228;2022-11-15T09:11:07;1.40;;;1.10;;
50968;SDS011;36982;51.474;7.228;2022-11-15T09:13:34;3.30;;;1.70;;
50968;SDS011;36982;51.474;7.228;2022-11-15T09:16:02;1.43;;;1.20;;
50968;SDS011;36982;51.474;7.228;2022-11-15T09:18:28;1.37;;;1.10;;
50968;SDS011;36982;51.474;7.228;2022-11-15T09:20:55;1.60;;;1.10;;
50968;SDS011;36982;51.474;7.228;2022-11-15T09:23:24;2.27;;;1.10;;
50968;SDS011;36982;51.474;7.228;2022-11-15T09:25:50;2.23;;;1.40;;
50968;SDS011;36982;51.474;7.228;2022-11-15T09:28:16;1.60;;;1.00;;
50968;SDS011;36982;51.474;7.228;2022-11-15T09:30:42;1.80;;;0.93;;
50968;SDS011;36982;51.474;7.228;2022-11-15T09:33:08;2.83;;;1.20;;
50968;SDS011;36982;51.474;7.228;2022-11-15T09:35:35;2.03;;;1.30;;
50968;SDS011;36982;51.474;7.228;2022-11-15T09:38:01;3.43;;;1.00;;
50968;SDS011;36982;51.474;7.228;2022-11-15T09:40:27;2.93;;;1.10;;
50968;SDS011;36982;51.474;7.228;2022-11-15T09:42:58;1.70;;;1.17;;
50968;SDS011;36982;51.474;7.228;2022-11-15T09:45:54;2.77;;;1.40;;
50968;SDS011;36982;51.474;7.228;2022-11-15T09:50:57;1.67;;;1.00;;
50968;SDS011;36982;51.474;7.228;2022-11-15T09:53:26;2.10;;;1.10;;
50968;SDS011;36982;51.474;7.228;2022-11-15T10:01:16;2.33;;;1.13;;
50968;SDS011;36982;51.474;7.228;2022-11-15T10:04:00;1.37;;;0.80;;
50968;SDS011;36982;51.474;7.228;2022-11-15T10:06:26;1.93;;;0.90;;
50968;SDS011;36982;51.474;7.228;2022-11-15T10:11:30;1.60;;;1.20;;
50968;SDS011;36982;51.474;7.228;2022-11-15T10:14:00;3.53;;;1.00;;
50968;SDS011;36982;51.474;7.228;2022-11-15T10:24:40;4.67;;;1.00;;
50968;SDS011;36982;51.474;7.228;2022-11-15T10:27:15;1.20;;;0.80;;
50968;SDS011;36982;51.474;7.228;2022-11-15T10:29:46;1.87;;;0.90;;
50968;SDS011;36982;51.474;7.228;2022-11-15T10:32:14;5.23;;;1.00;;
50968;SDS011;36982;51.474;7.228;2022-11-15T10:34:41;1.67;;;1.00;;
50968;SDS011;36982;51.474;7.228;2022-11-15T10:37:07;2.93;;;1.00;;
50968;SDS011;36982;51.474;7.228;2022-11-15T10:39:33;1.50;;;0.83;;
50968;SDS011;36982;51.474;7.228;2022-11-15T10:42:14;0.93;;;0.70;;
50968;SDS011;36982;51.474;7.228;2022-11-15T10:44:42;6.27;;;1.17;;
50968;SDS011;36982;51.474;7.228;2022-11-15T10:49:59;3.00;;;0.87;;
50968;SDS011;36982;51.474;7.228;2022-11-15T10:52:30;1.20;;;1.10;;
50968;SDS011;36982;51.474;7.228;2022-11-15T10:55:03;2.80;;;1.13;;
50968;SDS011;36982;51.474;7.228;2022-11-15T11:00:54;1.67;;;1.00;;
50968;SDS011;36982;51.474;7.228;2022-11-15T11:03:27;2.23;;;0.83;;
50968;SDS011;36982;51.474;7.228;2022-11-15T11:06:06;1.83;;;1.00;;
50968;SDS011;36982;51.474;7.228;2022-11-15T11:08:37;1.90;;;0.87;;
50968;SDS011;36982;51.474;7.228;2022-11-15T11:11:03;5.67;;;1.07;;
50968;SDS011;36982;51.474;7.228;2022-11-15T11:13:31;1.33;;;0.70;;
50968;SDS011;36982;51.474;7.228;2022-11-15T11:24:22;1.73;;;0.80;;
50968;SDS011;36982;51.474;7.228;2022-11-15T11:27:09;1.10;;;0.80;;
50968;SDS011;36982;51.474;7.228;2022-11-15T11:40:34;1.23;;;0.70;;
50968;SDS011;36982;51.474;7.228;2022-11-15T11:43:30;1.07;;;0.90;;
50968;SDS011;36982;51.474;7.228;2022-11-15T11:51:05;4.50;;;0.83;;
50968;SDS011;36982;51.474;7.228;2022-11-15T11:53:58;1.97;;;0.70;;
50968;SDS011;36982;51.474;7.228;2022-11-15T11:56:33;2.03;;;0.77;;
50968;SDS011;36982;51.474;7.228;2022-11-15T11:59:06;3.83;;;0.80;;
50968;SDS011;36982;51.474;7.228;2022-11-15T12:02:08;1.33;;;0.47;;
50968;SDS011;36982;51.474;7.228;2022-11-15T12:04:50;1.67;;;0.90;;
50968;SDS011;36982;51.474;7.228;2022-11-15T12:07:30;0.97;;;0.60;;
50968;SDS011;36982;51.474;7.228;2022-11-15T12:10:45;1.63;;;0.87;;
50968;SDS011;36982;51.474;7.228;2022-11-15T12:13:02;1.20;;;0.60;;
50968;SDS011;36982;51.474;7.228;2022-11-15T12:18:08;0.90;;;0.80;;
50968;SDS011;36982;51.474;7.228;2022-11-15T12:20:41;3.03;;;0.97;;
50968;SDS011;36982;51.474;7.228;2022-11-15T12:23:59;2.43;;;0.83;;
50968;SDS011;36982;51.474;7.228;2022-11-15T12:26:22;1.70;;;1.00;;
50968;SDS011;36982;51.474;7.228;2022-11-15T12:28:58;1.37;;;0.70;;
50968;SDS011;36982;51.474;7.228;2022-11-15T12:34:00;3.30;;;0.97;;
50968;SDS011;36982;51.474;7.228;2022-11-15T12:39:03;1.30;;;0.70;;
50968;SDS011;36982;51.474;7.228;2022-11-15T12:41:37;1.53;;;1.00;;
50968;SDS011;36982;51.474;7.228;2022-11-15T12:44:09;2.20;;;0.83;;
50968;SDS011;36982;51.474;7.228;2022-11-15T13:02:24;1.93;;;0.63;;
50968;SDS011;36982;51.474;7.228;2022-11-15T13:04:51;1.30;;;0.70;;
50968;SDS011;36982;51.474;7.228;2022-11-15T13:09:59;2.43;;;0.80;;
50968;SDS011;36982;51.474;7.228;2022-11-15T13:19:52;4.40;;;0.97;;
50968;SDS011;36982;51.474;7.228;2022-11-15T13:22:23;1.63;;;0.60;;
50968;SDS011;36982;51.474;7.228;2022-11-15T13:27:52;2.57;;;0.70;;
50968;SDS011;36982;51.474;7.228;2022-11-15T13:30:26;0.90;;;0.50;;
50968;SDS011;36982;51.474;7.228;2022-11-15T13:32:54;1.80;;;0.67;;
50968;SDS011;36982;51.474;7.228;2022-11-15T13:35:23;1.80;;;0.73;;
50968;SDS011;36982;51.474;7.228;2022-11-15T13:37:52;1.60;;;0.80;;
50968;SDS011;36982;51.474;7.228;2022-11-15T13:42:58;1.20;;;0.60;;
50968;SDS011;36982;51.474;7.228;2022-11-15T13:45:24;1.47;;;0.60;;
50968;SDS011;36982;51.474;7.228;2022-11-15T13:47:55;1.67;;;0.70;;
50968;SDS011;36982;51.474;7.228;2022-11-15T13:50:22;1.93;;;0.80;;
50968;SDS011;36982;51.474;7.228;2022-11-15T13:52:51;1.07;;;0.60;;
50968;SDS011;36982;51.474;7.228;2022-11-15T13:55:19;1.37;;;0.60;;
50968;SDS011;36982;51.474;7.228;2022-11-15T13:57:51;1.80;;;0.80;;
50968;SDS011;36982;51.474;7.228;2022-11-15T14:03:19;1.83;;;0.60;;
50968;SDS011;36982;51.474;7.228;2022-11-15T14:06:14;1.63;;;0.70;;
50968;SDS011;36982;51.474;7.228;2022-11-15T14:08:42;2.97;;;0.83;;
50968;SDS011;36982;51.474;7.228;2022-11-15T14:11:25;1.63;;;0.63;;
50968;SDS011;36982;51.474;7.228;2022-11-15T14:16:33;2.40;;;0.70;;
50968;SDS011;36982;51.474;7.228;2022-11-15T14:19:00;1.83;;;0.83;;
50968;SDS011;36982;51.474;7.228;2022-11-15T14:21:27;2.03;;;0.83;;
50968;SDS011;36982;51.474;7.228;2022-11-15T14:23:53;1.67;;;1.00;;
50968;SDS011;36982;51.474;7.228;2022-11-15T14:26:55;4.63;;;0.90;;
50968;SDS011;36982;51.474;7.228;2022-11-15T14:29:27;2.40;;;1.00;;
50968;SDS011;36982;51.474;7.228;2022-11-15T14:32:05;1.73;;;0.83;;
50968;SDS011;36982;51.474;7.228;2022-11-15T14:34:41;1.70;;;0.80;;
50968;SDS011;36982;51.474;7.228;2022-11-15T14:37:19;2.37;;;1.07;;
50968;SDS011;36982;51.474;7.228;2022-11-15T14:39:45;3.73;;;1.00;;
50968;SDS011;36982;51.474;7.228;2022-11-15T14:42:11;1.80;;;1.20;;
50968;SDS011;36982;51.474;7.228;2022-11-15T14:44:36;3.30;;;1.07;;
50968;SDS011;36982;51.474;7.228;2022-11-15T14:47:02;3.53;;;1.40;;
50968;SDS011;36982;51.474;7.228;2022-11-15T14:49:27;3.43;;;1.33;;
50968;SDS011;36982;51.474;7.228;2022-11-15T14:51:53;2.23;;;1.40;;
50968;SDS011;36982;51.474;7.228;2022-11-15T14:54:19;4.93;;;1.40;;
50968;SDS011;36982;51.474;7.228;2022-11-15T14:56:44;2.40;;;1.63;;
50968;SDS011;36982;51.474;7.228;2022-11-15T14:59:10;2.83;;;1.43;;
50968;SDS011;36982;51.474;7.228;2022-11-15T15:01:35;2.40;;;1.60;;
50968;SDS011;36982;51.474;7.228;2022-11-15T15:04:01;2.80;;;1.70;;
50968;SDS011;36982;51.474;7.228;2022-11-15T15:09:18;3.23;;;1.67;;
50968;SDS011;36982;51.474;7.228;2022-11-15T15:11:44;3.10;;;1.83;;
50968;SDS011;36982;51.474;7.228;2022-11-15T15:14:10;2.13;;;1.53;;
50968;SDS011;36982;51.474;7.228;2022-11-15T15:16:37;2.53;;;1.70;;
50968;SDS011;36982;51.474;7.228;2022-11-15T15:19:03;3.27;;;1.53;;
50968;SDS011;36982;51.474;7.228;2022-11-15T15:21:28;4.47;;;1.50;;
50968;SDS011;36982;51.474;7.228;2022-11-15T15:23:56;3.27;;;1.50;;
50968;SDS011;36982;51.474;7.228;2022-11-15T15:26:24;1.87;;;1.40;;
50968;SDS011;36982;51.474;7.228;2022-11-15T15:28:50;2.60;;;1.70;;
50968;SDS011;36982;51.474;7.228;2022-11-15T15:31:16;1.60;;;1.33;;
50968;SDS011;36982;51.474;7.228;2022-11-15T15:33:42;2.70;;;1.43;;
50968;SDS011;36982;51.474;7.228;2022-11-15T15:36:10;2.00;;;1.23;;
50968;SDS011;36982;51.474;7.228;2022-11-15T15:38:37;3.17;;;1.40;;
50968;SDS011;36982;51.474;7.228;2022-11-15T15:41:07;2.87;;;1.57;;
50968;SDS011;36982;51.474;7.228;2022-11-15T15:43:35;2.60;;;1.30;;
50968;SDS011;36982;51.474;7.228;2022-11-15T15:46:00;2.63;;;2.10;;
50968;SDS011;36982;51.474;7.228;2022-11-15T15:48:26;4.13;;;1.90;;
50968;SDS011;36982;51.474;7.228;2022-11-15T15:50:51;2.10;;;1.37;;
50968;SDS011;36982;51.474;7.228;2022-11-15T15:53:17;2.17;;;1.50;;
50968;SDS011;36982;51.474;7.228;2022-11-15T15:55:43;2.43;;;1.63;;
50968;SDS011;36982;51.474;7.228;2022-11-15T15:58:08;4.20;;;1.80;;
50968;SDS011;36982;51.474;7.228;2022-11-15T16:00:35;2.57;;;1.70;;
50968;SDS011;36982;51.474;7.228;2022-11-15T16:03:01;3.63;;;1.73;;
50968;SDS011;36982;51.474;7.228;2022-11-15T16:05:27;2.37;;;1.80;;
50968;SDS011;36982;51.474;7.228;2022-11-15T16:07:53;4.93;;;1.67;;
50968;SDS011;36982;51.474;7.228;2022-11-15T16:12:50;2.30;;;1.50;;
50968;SDS011;36982;51.474;7.228;2022-11-15T16:15:16;3.27;;;1.60;;
50968;SDS011;36982;51.474;7.228;2022-11-15T16:17:52;2.50;;;1.73;;
50968;SDS011;36982;51.474;7.228;2022-11-15T16:20:33;1.83;;;1.50;;
50968;SDS011;36982;51.474;7.228;2022-11-15T16:23:05;2.77;;;2.23;;
50968;SDS011;36982;51.474;7.228;2022-11-15T16:25:46;2.57;;;1.40;;
50968;SDS011;36982;51.474;7.228;2022-11-15T16:28:27;3.70;;;1.60;;
50968;SDS011;36982;51.474;7.228;2022-11-15T16:31:04;2.00;;;1.37;;
50968;SDS011;36982;51.474;7.228;2022-11-15T16:33:32;2.93;;;1.23;;
50968;SDS011;36982;51.474;7.228;2022-11-15T16:35:58;2.97;;;1.67;;
50968;SDS011;36982;51.474;7.228;2022-11-15T16:38:23;3.33;;;1.87;;
50968;SDS011;36982;51.474;7.228;2022-11-15T16:40:49;2.77;;;1.87;;
50968;SDS011;36982;51.474;7.228;2022-11-15T16:46:20;3.43;;;1.87;;
50968;SDS011;36982;51.474;7.228;2022-11-15T16:48:48;4.00;;;1.70;;
50968;SDS011;36982;51.474;7.228;2022-11-15T16:51:15;4.90;;;2.20;;
50968;SDS011;36982;51.474;7.228;2022-11-15T16:53:41;1.80;;;1.53;;
50968;SDS011;36982;51.474;7.228;2022-11-15T16:56:17;3.23;;;1.60;;
50968;SDS011;36982;51.474;7.228;2022-11-15T16:58:51;3.50;;;1.67;;
50968;SDS011;36982;51.474;7.228;2022-11-15T17:01:23;2.90;;;1.60;;
50968;SDS011;36982;51.474;7.228;2022-11-15T17:03:50;3.50;;;1.43;;
50968;SDS011;36982;51.474;7.228;2022-11-15T17:06:16;3.87;;;1.63;;
50968;SDS011;36982;51.474;7.228;2022-11-15T17:08:43;2.97;;;1.60;;
50968;SDS011;36982;51.474;7.228;2022-11-15T17:11:10;1.93;;;1.43;;
50968;SDS011;36982;51.474;7.228;2022-11-15T17:13:40;3.87;;;1.80;;
50968;SDS011;36982;51.474;7.228;2022-11-15T17:16:06;2.73;;;1.80;;
50968;SDS011;36982;51.474;7.228;2022-11-15T17:18:37;2.33;;;1.43;;